Time;durP1;ratioP1;P1;durP2;ratioP2;P2;SDS_P1;SDS_P2;PMS_P1;PMS_P2;Temp;Humidity;BMP_temperature;BMP_pressure;BME280_temperature;BME280_humidity;BME280_pressure;Samples;Min_cycle;Max_cycle;Signal;HPM_P1;HPM_P2
2022/06/17 00:02:08;;;;;;;1999.90;999.90;;;19.20;99.90;;;;;;4955061;28;20174;-75
2022/06/17 00:04:34;;;;;;;1999.90;999.90;;;19.20;99.90;;;;;;4954982;28;20173;-75
2022/06/17 00:07:04;;;;;;;1999.90;999.90;;;19.20;99.90;;;;;;4954671;28;20637;-75
2022/06/17 00:09:31;;;;;;;1999.90;999.90;;;19.20;99.90;;;;;;4954905;28;20850;-75
2022/06/17 00:11:57;;;;;;;1999.90;999.90;;;19.20;99.90;;;;;;4954922;28;20795;-75
2022/06/17 00:14:31;;;;;;;1999.90;999.90;;;19.10;99.90;;;;;;4954967;28;20462;-75
2022/06/17 00:16:57;;;;;;;1999.90;999.90;;;19.10;99.90;;;;;;4954569;28;20777;-75
2022/06/17 00:19:23;;;;;;;1999.90;999.90;;;19.10;99.90;;;;;;4954534;28;20457;-75
2022/06/17 00:21:51;;;;;;;1999.90;999.90;;;19.10;99.90;;;;;;4954616;28;20412;-75
2022/06/17 00:24:17;;;;;;;1999.90;999.90;;;19.10;99.90;;;;;;4954713;28;20381;-75
2022/06/17 00:26:43;;;;;;;1999.90;999.90;;;19.00;99.90;;;;;;4954270;29;20824;-75
2022/06/17 00:29:12;;;;;;;1999.90;999.90;;;18.90;99.90;;;;;;4954514;28;20195;-75
2022/06/17 00:31:38;;;;;;;1999.90;999.90;;;18.80;99.90;;;;;;4954586;28;20451;-75
2022/06/17 00:34:04;;;;;;;1999.90;999.90;;;18.70;99.90;;;;;;4954392;28;20422;-75
2022/06/17 00:36:29;;;;;;;1999.90;999.90;;;18.60;99.90;;;;;;4954223;29;20382;-75
2022/06/17 00:38:55;;;;;;;1999.90;999.90;;;18.50;99.90;;;;;;4954345;28;20181;-75
2022/06/17 00:41:36;;;;;;;1999.90;999.90;;;18.30;99.90;;;;;;4954313;28;20551;-75
2022/06/17 00:44:28;;;;;;;1999.90;999.90;;;18.10;99.90;;;;;;4954379;28;20181;-75
2022/06/17 00:46:58;;;;;;;1999.90;999.90;;;17.90;99.90;;;;;;4953905;28;20473;-75
2022/06/17 00:49:41;;;;;;;1999.90;999.90;;;17.90;99.90;;;;;;4954285;28;20432;-75
2022/06/17 00:52:25;;;;;;;1999.90;999.90;;;17.90;99.90;;;;;;4954182;28;20396;-75
2022/06/17 00:55:20;;;;;;;1999.90;999.90;;;17.90;99.90;;;;;;4954224;28;20421;-75
2022/06/17 00:57:45;;;;;;;1999.90;999.90;;;17.80;99.90;;;;;;4951905;28;20410;-75
2022/06/17 01:00:19;;;;;;;1999.90;999.90;;;17.80;99.90;;;;;;4954123;28;20445;-75
2022/06/17 01:03:05;;;;;;;1999.90;999.90;;;17.80;99.90;;;;;;4954157;28;20167;-75
2022/06/17 01:05:37;;;;;;;1999.90;999.90;;;17.70;99.90;;;;;;4954037;28;20463;-75
2022/06/17 01:08:12;;;;;;;1999.90;999.90;;;17.70;99.90;;;;;;4953836;28;20417;-75
2022/06/17 01:10:43;;;;;;;1999.90;999.90;;;17.70;99.90;;;;;;4954035;28;20433;-75
2022/06/17 01:13:10;;;;;;;1999.90;999.90;;;17.80;99.90;;;;;;4954130;28;20411;-75
2022/06/17 01:15:39;;;;;;;1999.90;999.90;;;17.70;99.90;;;;;;4954006;28;20507;-75
2022/06/17 01:18:05;;;;;;;1999.90;999.90;;;17.50;99.90;;;;;;4953715;28;20770;-75
2022/06/17 01:20:32;;;;;;;1999.90;999.90;;;17.60;99.90;;;;;;4954167;28;20937;-75
2022/06/17 01:23:05;;;;;;;1999.90;999.90;;;17.50;99.90;;;;;;4953885;28;20429;-75
2022/06/17 01:25:34;;;;;;;1999.90;999.90;;;17.50;99.90;;;;;;4953850;28;20508;-75
2022/06/17 01:28:08;;;;;;;1999.90;999.90;;;17.50;99.90;;;;;;4953443;28;20468;-75
2022/06/17 01:30:41;;;;;;;1999.90;999.90;;;17.50;99.90;;;;;;4953786;28;20432;-75
2022/06/17 01:33:18;;;;;;;1999.90;999.90;;;17.50;99.90;;;;;;4953819;28;20461;-75
2022/06/17 01:35:55;;;;;;;1999.90;999.90;;;17.50;99.90;;;;;;4953745;28;20408;-75
2022/06/17 01:38:22;;;;;;;1999.90;999.90;;;17.50;99.90;;;;;;4953783;28;20411;-75
2022/06/17 01:40:50;;;;;;;1999.90;999.90;;;17.50;99.90;;;;;;4953615;28;20435;-75
2022/06/17 01:43:18;;;;;;;1999.90;999.90;;;17.50;99.90;;;;;;4953734;28;20429;-75
2022/06/17 01:45:56;;;;;;;1999.90;999.90;;;17.40;99.90;;;;;;4953603;28;20448;-75
2022/06/17 01:48:24;;;;;;;1999.90;999.90;;;17.30;99.90;;;;;;4953625;28;20973;-75
2022/06/17 01:50:55;;;;;;;1999.90;999.90;;;17.30;99.90;;;;;;4953504;28;20448;-75
2022/06/17 01:53:24;;;;;;;1999.90;999.90;;;17.30;99.90;;;;;;4956514;28;20400;-75
2022/06/17 01:55:57;;;;;;;1999.90;999.90;;;17.30;99.90;;;;;;4957330;28;20417;-75
2022/06/17 01:58:39;;;;;;;1999.90;999.90;;;17.20;99.90;;;;;;4957326;28;20449;-75
2022/06/17 02:01:07;;;;;;;1999.90;999.90;;;17.10;99.90;;;;;;4957295;28;20833;-75
2022/06/17 02:03:42;;;;;;;1999.90;999.90;;;17.10;99.90;;;;;;4957206;28;20471;-75
2022/06/17 02:06:31;;;;;;;1999.90;999.90;;;17.10;99.90;;;;;;4956855;28;20888;-75
2022/06/17 02:08:57;;;;;;;1999.90;999.90;;;17.00;99.90;;;;;;4957184;28;20406;-76
2022/06/17 02:11:23;;;;;;;1999.90;999.90;;;17.00;99.90;;;;;;4957087;28;20409;-75
2022/06/17 02:13:49;;;;;;;1999.90;999.90;;;17.00;99.90;;;;;;4957102;28;20989;-76
2022/06/17 02:16:16;;;;;;;1999.90;999.90;;;17.00;99.90;;;;;;4956695;29;20492;-75
2022/06/17 02:18:44;;;;;;;1999.90;999.90;;;16.90;99.90;;;;;;4956964;28;20674;-75
2022/06/17 02:21:15;;;;;;;1999.90;999.90;;;16.80;99.90;;;;;;4956803;28;20459;-75
2022/06/17 02:23:42;;;;;;;1999.90;999.90;;;16.80;99.90;;;;;;4956913;28;20411;-75
2022/06/17 02:26:09;;;;;;;1999.90;999.90;;;16.80;99.90;;;;;;4956516;28;20979;-75
2022/06/17 02:28:35;;;;;;;1999.90;999.90;;;16.70;99.90;;;;;;4956797;28;20413;-75
2022/06/17 02:31:02;;;;;;;1999.90;999.90;;;16.80;99.90;;;;;;4956628;28;20442;-75
2022/06/17 02:33:29;;;;;;;1999.90;999.90;;;16.70;99.90;;;;;;4956666;28;20822;-74
2022/06/17 02:36:01;;;;;;;1999.90;999.90;;;16.70;99.90;;;;;;4956492;28;20413;-75
2022/06/17 02:38:30;;;;;;;1999.90;999.90;;;16.70;99.90;;;;;;4956814;28;20773;-75
2022/06/17 02:41:06;;;;;;;1999.90;999.90;;;16.60;99.90;;;;;;4956541;28;20805;-75
2022/06/17 02:43:45;;;;;;;1999.90;999.90;;;16.60;99.90;;;;;;4956593;28;20440;-75
2022/06/17 02:46:15;;;;;;;1999.90;999.90;;;16.40;99.90;;;;;;4956159;28;20532;-75
2022/06/17 02:49:07;;;;;;;1999.90;999.90;;;16.30;99.90;;;;;;4956481;28;20911;-75
2022/06/17 02:51:38;;;;;;;1999.90;999.90;;;16.30;99.90;;;;;;4956153;28;20414;-75
2022/06/17 02:54:06;;;;;;;1999.90;999.90;;;16.20;99.90;;;;;;4956367;28;20456;-75
2022/06/17 02:56:35;;;;;;;1999.90;999.90;;;16.20;99.90;;;;;;4956008;28;20408;-75
2022/06/17 02:59:13;;;;;;;1999.90;999.90;;;16.10;99.90;;;;;;4956197;28;20415;-75
2022/06/17 03:01:41;;;;;;;1999.90;999.90;;;16.10;99.90;;;;;;4956265;29;20505;-75
2022/06/17 03:04:15;;;;;;;1999.90;999.90;;;16.10;99.90;;;;;;4954848;28;20403;-75
2022/06/17 03:06:45;;;;;;;1999.90;999.90;;;16.10;99.90;;;;;;4955841;28;20533;-75
2022/06/17 03:09:20;;;;;;;1999.90;999.90;;;16.10;99.90;;;;;;4955950;28;20430;-75
2022/06/17 03:11:51;;;;;;;1999.90;999.90;;;16.00;99.90;;;;;;4956088;28;20410;-75
2022/06/17 03:14:19;;;;;;;1999.90;999.90;;;16.00;99.90;;;;;;4956285;28;20914;-75
2022/06/17 03:16:47;;;;;;;1999.90;999.90;;;16.00;99.90;;;;;;4955558;28;20506;-75
2022/06/17 03:19:13;;;;;;;1999.90;999.90;;;16.00;99.90;;;;;;4955986;28;20450;-75
2022/06/17 03:21:39;;;;;;;1999.90;999.90;;;15.90;99.90;;;;;;4955921;29;20565;-75
2022/06/17 03:24:05;;;;;;;1999.90;999.90;;;15.80;99.90;;;;;;4955778;29;20197;-75
2022/06/17 03:26:43;;;;;;;1999.90;999.90;;;15.80;99.90;;;;;;4955337;29;20454;-75
2022/06/17 03:29:11;;;;;;;1999.90;999.90;;;15.80;99.90;;;;;;4955687;28;20183;-75
2022/06/17 03:31:45;;;;;;;1999.90;999.90;;;15.70;99.90;;;;;;4955664;28;20414;-75
2022/06/17 03:34:53;;;;;;;1999.90;999.90;;;15.70;99.90;;;;;;4955640;28;20414;-75
2022/06/17 03:37:50;;;;;;;1999.90;999.90;;;15.60;99.90;;;;;;4933712;29;20987;-75
2022/06/17 03:40:27;;;;;;;1999.90;999.90;;;15.50;99.90;;;;;;4955457;28;20435;-75
2022/06/17 03:43:08;;;;;;;1999.90;999.90;;;15.50;99.90;;;;;;4955476;28;20411;-75
2022/06/17 03:46:13;;;;;;;1999.90;999.90;;;15.60;99.90;;;;;;4955534;28;20448;-75
2022/06/17 03:48:39;;;;;;;1999.90;999.90;;;15.60;99.90;;;;;;4933873;29;20537;-75
2022/06/17 03:51:05;;;;;;;1999.90;999.90;;;15.60;99.90;;;;;;4933887;29;20513;-75
2022/06/17 03:53:35;;;;;;;1999.90;999.90;;;15.60;99.90;;;;;;4943994;28;20201;-75
2022/06/17 03:56:30;;;;;;;1999.90;999.90;;;15.60;99.90;;;;;;4954965;28;20414;-76
2022/06/17 03:59:00;;;;;;;1999.90;999.90;;;15.60;99.90;;;;;;4955109;28;20412;-75
2022/06/17 04:01:32;;;;;;;1999.90;999.90;;;15.70;99.90;;;;;;4955132;28;20424;-75
2022/06/17 04:04:02;;;;;;;1999.90;999.90;;;15.70;99.90;;;;;;4953851;29;20766;-75
2022/06/17 04:06:30;;;;;;;1999.90;999.90;;;15.70;99.90;;;;;;4954650;28;20791;-76
2022/06/17 04:08:58;;;;;;;1999.90;999.90;;;15.80;99.90;;;;;;4954813;28;20412;-75
2022/06/17 04:11:29;;;;;;;1999.90;999.90;;;16.00;99.90;;;;;;4954865;28;20457;-75
2022/06/17 04:13:57;;;;;;;1999.90;999.90;;;16.10;99.90;;;;;;4954978;28;20921;-75
2022/06/17 04:16:44;;;;;;;1999.90;999.90;;;16.20;99.90;;;;;;4954206;28;20412;-75
2022/06/17 04:19:15;;;;;;;1999.90;999.90;;;16.30;99.90;;;;;;4954574;28;20446;-75
2022/06/17 04:21:41;;;;;;;1999.90;999.90;;;16.40;99.90;;;;;;4954805;28;20421;-75
2022/06/17 04:24:17;;;;;;;1999.90;999.90;;;16.30;99.90;;;;;;4954700;29;20414;-75
2022/06/17 04:26:45;;;;;;;1999.90;999.90;;;16.30;99.90;;;;;;4954393;28;20200;-75
2022/06/17 04:29:18;;;;;;;1999.90;999.90;;;16.40;99.90;;;;;;4954597;28;20433;-75
2022/06/17 04:31:47;;;;;;;1999.90;999.90;;;16.40;99.90;;;;;;4954524;28;20415;-75
2022/06/17 04:34:15;;;;;;;1999.90;999.90;;;16.50;99.90;;;;;;4954565;28;20408;-76
2022/06/17 04:36:46;;;;;;;1999.90;999.90;;;16.60;99.90;;;;;;4954243;28;20421;-75
2022/06/17 04:39:24;;;;;;;1999.90;999.90;;;16.60;99.90;;;;;;4954441;28;20812;-75
2022/06/17 04:41:54;;;;;;;1999.90;999.90;;;16.70;99.90;;;;;;4954426;28;20485;-75
2022/06/17 04:44:20;;;;;;;1999.90;999.90;;;16.70;99.90;;;;;;4954405;28;20413;-75
2022/06/17 04:46:55;;;;;;;1999.90;999.90;;;16.80;99.90;;;;;;4953990;28;20455;-75
2022/06/17 04:49:24;;;;;;;1999.90;999.90;;;16.90;99.90;;;;;;4954250;28;20819;-75
2022/06/17 04:51:52;;;;;;;1999.90;999.90;;;17.00;99.90;;;;;;4954353;28;20410;-75
2022/06/17 04:54:18;;;;;;;1999.90;999.90;;;17.00;99.90;;;;;;4954215;28;20505;-75
2022/06/17 04:56:46;;;;;;;1999.90;999.90;;;17.10;99.90;;;;;;4953910;29;20492;-75
2022/06/17 04:59:31;;;;;;;1999.90;999.90;;;17.30;99.90;;;;;;4954379;28;20199;-75
2022/06/17 05:01:58;;;;;;;1999.90;999.90;;;17.30;99.90;;;;;;4954207;29;20928;-75
2022/06/17 05:04:25;;;;;;;1999.90;999.90;;;17.40;99.90;;;;;;4954022;28;20408;-75
2022/06/17 05:06:51;;;;;;;1999.90;999.90;;;17.40;99.90;;;;;;4953776;28;20823;-76
2022/06/17 05:09:29;;;;;;;1999.90;999.90;;;17.50;99.90;;;;;;4953900;28;20489;-75
2022/06/17 05:12:15;;;;;;;1999.90;999.90;;;17.50;99.90;;;;;;4954048;28;20410;-75
2022/06/17 05:15:01;;;;;;;1999.90;999.90;;;17.60;99.90;;;;;;4953964;28;20414;-75
2022/06/17 05:17:27;;;;;;;1999.90;999.90;;;17.70;99.90;;;;;;4953662;28;20406;-75
2022/06/17 05:19:53;;;;;;;1999.90;999.90;;;17.80;99.90;;;;;;4953798;28;20452;-75
2022/06/17 05:22:30;;;;;;;1999.90;999.90;;;17.90;99.90;;;;;;4953896;28;20418;-76
2022/06/17 05:24:56;;;;;;;1999.90;999.90;;;18.00;99.90;;;;;;4953814;28;20477;-75
2022/06/17 05:27:22;;;;;;;1999.90;999.90;;;18.10;99.90;;;;;;4955006;28;20447;-75
2022/06/17 05:29:47;;;;;;;1999.90;999.90;;;18.20;99.90;;;;;;4957860;28;21125;-74
2022/06/17 05:32:17;;;;;;;1999.90;999.90;;;18.20;99.90;;;;;;4957701;29;20301;-74
2022/06/17 05:34:42;;;;;;;1999.90;999.90;;;18.30;99.90;;;;;;4958103;28;20278;-75
2022/06/17 05:37:08;;;;;;;1999.90;999.90;;;18.40;99.90;;;;;;4957541;29;20419;-75
2022/06/17 05:39:34;;;;;;;1999.90;999.90;;;18.40;99.90;;;;;;4957879;28;20207;-74
2022/06/17 05:42:00;;;;;;;1999.90;999.90;;;18.50;99.90;;;;;;4957852;29;20422;-74
2022/06/17 05:44:25;;;;;;;1999.90;999.90;;;18.70;99.90;;;;;;4957909;29;20547;-74
2022/06/17 05:46:51;;;;;;;1999.90;999.90;;;18.80;99.90;;;;;;4957650;29;20191;-74
2022/06/17 05:49:16;;;;;;;1999.90;999.90;;;18.90;99.90;;;;;;4957983;28;20194;-75
2022/06/17 05:51:42;;;;;;;1999.90;999.90;;;19.10;99.90;;;;;;4958026;29;20544;-74
2022/06/17 05:54:08;;;;;;;1999.90;999.90;;;19.30;99.90;;;;;;4958162;29;20204;-74
2022/06/17 05:56:33;;;;;;;1999.90;999.90;;;19.50;99.90;;;;;;4957645;29;20182;-75
2022/06/17 05:58:59;;;;;;;1999.90;999.90;;;19.60;99.90;;;;;;4957536;28;20744;-74
2022/06/17 06:01:24;;;;;;;1999.90;999.90;;;19.60;99.90;;;;;;4957583;29;20234;-74
2022/06/17 06:03:50;;;;;;;1999.90;999.90;;;19.60;99.90;;;;;;4957975;29;20527;-74
2022/06/17 06:06:15;;;;;;;1999.90;999.90;;;19.50;99.90;;;;;;4957627;29;20230;-74
2022/06/17 06:08:41;;;;;;;1999.90;999.90;;;19.60;99.90;;;;;;4958013;29;20620;-74
2022/06/17 06:11:08;;;;;;;1999.90;999.90;;;19.50;99.90;;;;;;4957561;28;20284;-75
2022/06/17 06:13:33;;;;;;;1999.90;999.90;;;19.50;99.90;;;;;;4957530;28;20171;-74
2022/06/17 06:16:01;;;;;;;1999.90;999.90;;;19.40;99.90;;;;;;4958223;29;20413;-74
2022/06/17 06:18:30;;;;;;;1999.90;999.90;;;19.40;99.90;;;;;;4957683;28;20573;-73
2022/06/17 06:20:56;;;;;;;1999.90;999.90;;;19.30;99.90;;;;;;4957316;28;20442;-74
2022/06/17 06:23:22;;;;;;;1999.90;999.90;;;19.40;99.90;;;;;;4957384;28;20415;-74
2022/06/17 06:25:47;;;;;;;1999.90;999.90;;;19.40;99.90;;;;;;4957344;28;20450;-74
2022/06/17 06:28:19;;;;;;;1999.90;999.90;;;19.50;99.90;;;;;;4957517;29;20167;-75
2022/06/17 06:30:52;;;;;;;1999.90;999.90;;;19.50;99.90;;;;;;4957720;28;20195;-74
2022/06/17 06:33:18;;;;;;;1999.90;999.90;;;19.70;99.90;;;;;;4958135;28;20402;-75
2022/06/17 06:35:44;;;;;;;1999.90;999.90;;;19.80;99.90;;;;;;4957891;29;20933;-75
2022/06/17 06:38:10;;;;;;;1999.90;999.90;;;19.90;99.90;;;;;;4957213;28;20194;-74
2022/06/17 06:40:35;;;;;;;1999.90;999.90;;;20.00;99.90;;;;;;4957479;28;20197;-74
2022/06/17 06:43:01;;;;;;;1999.90;999.90;;;20.20;99.90;;;;;;4957532;29;20206;-75
2022/06/17 06:45:32;;;;;;;1999.90;999.90;;;20.40;99.90;;;;;;4957482;28;20254;-75
2022/06/17 06:48:00;;;;;;;1999.90;999.90;;;20.70;99.90;;;;;;4957608;28;20165;-75
2022/06/17 06:50:29;;;;;;;1999.90;999.90;;;21.10;99.90;;;;;;4957384;28;20439;-74
2022/06/17 06:52:55;;;;;;;1999.90;999.90;;;21.40;99.90;;;;;;4957609;28;20904;-75
2022/06/17 06:55:20;;;;;;;1999.90;999.90;;;21.70;99.90;;;;;;4957008;29;20416;-75
2022/06/17 06:57:50;;;;;;;1999.90;999.90;;;22.00;99.90;;;;;;4957406;28;20445;-75
2022/06/17 07:00:36;;;;;;;1999.90;999.90;;;22.30;99.90;;;;;;4957829;28;20202;-74
2022/06/17 07:03:01;;;;;;;1999.90;999.90;;;22.40;99.90;;;;;;4957635;28;20445;-74
2022/06/17 07:05:28;;;;;;;1999.90;999.90;;;22.40;99.90;;;;;;4957793;29;20533;-74
2022/06/17 07:07:54;;;;;;;1999.90;999.90;;;22.30;99.90;;;;;;4956532;28;20612;-74
2022/06/17 07:10:25;;;;;;;1999.90;999.90;;;22.30;99.90;;;;;;4957106;28;20942;-74
2022/06/17 07:12:52;;;;;;;1999.90;999.90;;;22.30;99.90;;;;;;4957172;28;20401;-74
2022/06/17 07:15:18;;;;;;;1999.90;999.90;;;22.50;99.90;;;;;;4957298;28;20478;-75
2022/06/17 07:18:04;;;;;;;1999.90;999.90;;;22.60;99.90;;;;;;4956960;28;20463;-75
2022/06/17 07:20:42;;;;;;;1999.90;999.90;;;22.70;99.90;;;;;;4957483;28;20456;-75
2022/06/17 07:23:11;;;;;;;1999.90;999.90;;;22.70;99.90;;;;;;4957303;28;20786;-75
2022/06/17 07:25:38;;;;;;;1999.90;999.90;;;22.80;99.90;;;;;;4956679;28;20450;-74
2022/06/17 07:28:04;;;;;;;1999.90;999.90;;;22.80;99.90;;;;;;4957008;28;20414;-74
2022/06/17 07:30:31;;;;;;;1999.90;999.90;;;23.00;99.90;;;;;;4956846;28;20405;-75
2022/06/17 07:32:57;;;;;;;1999.90;999.90;;;23.10;99.90;;;;;;4956475;28;20389;-74
2022/06/17 07:35:23;;;;;;;1999.90;999.90;;;23.30;99.90;;;;;;4955840;28;20900;-75
2022/06/17 07:40:34;;;;;;;1999.90;999.90;;;23.60;99.90;;;;;;4955453;28;20411;-75
2022/06/17 07:43:00;;;;;;;1999.90;999.90;;;23.80;99.90;;;;;;4955492;28;20393;-75
2022/06/17 07:45:27;;;;;;;1999.90;999.90;;;23.90;99.90;;;;;;4955369;28;20866;-75
2022/06/17 07:47:54;;;;;;;1999.90;999.90;;;24.20;99.90;;;;;;4955138;28;20440;-76
2022/06/17 07:50:27;;;;;;;1999.90;999.90;;;24.40;99.90;;;;;;4954684;28;20426;-76
2022/06/17 07:52:53;;;;;;;1999.90;999.90;;;24.60;99.90;;;;;;4955330;28;20410;-76
2022/06/17 07:55:20;;;;;;;1999.90;999.90;;;24.70;99.90;;;;;;4955229;28;20397;-75
2022/06/17 07:57:46;;;;;;;1999.90;999.90;;;24.60;99.90;;;;;;4954968;28;20382;-76
2022/06/17 08:00:23;;;;;;;1999.90;999.90;;;24.50;99.90;;;;;;4955146;28;20412;-76
2022/06/17 08:02:49;;;;;;;1999.90;999.90;;;24.40;99.90;;;;;;4955135;28;20175;-76
2022/06/17 08:05:15;;;;;;;1999.90;999.90;;;24.40;99.90;;;;;;4955043;28;20424;-76
2022/06/17 08:07:41;;;;;;;1999.90;999.90;;;24.30;99.90;;;;;;4954868;28;20198;-76
2022/06/17 08:10:07;;;;;;;1999.90;999.90;;;24.40;99.90;;;;;;4955138;28;20446;-75
2022/06/17 08:12:33;;;;;;;1999.90;999.90;;;24.40;99.90;;;;;;4954928;28;20382;-75
2022/06/17 08:14:58;;;;;;;1999.90;999.90;;;24.30;99.90;;;;;;4954799;29;20415;-76
2022/06/17 08:17:24;;;;;;;1999.90;999.90;;;24.40;99.90;;;;;;4954980;29;20229;-74
2022/06/17 08:19:55;;;;;;;1999.90;999.90;;;24.40;99.90;;;;;;4956112;28;20199;-75
2022/06/17 08:22:22;;;;;;;1999.90;999.90;;;24.30;99.90;;;;;;4955584;28;20415;-75
2022/06/17 08:24:47;;;;;;;1999.90;999.90;;;24.30;99.90;;;;;;4955580;28;20385;-75
2022/06/17 08:27:13;;;;;;;1999.90;999.90;;;24.40;99.90;;;;;;4955799;29;20406;-75
2022/06/17 08:29:38;;;;;;;1999.90;999.90;;;24.40;99.90;;;;;;4955830;28;20285;-75
2022/06/17 08:34:49;;;;;;;1999.90;999.90;;;24.40;99.90;;;;;;4956023;29;20221;-74
2022/06/17 08:37:15;;;;;;;1999.90;999.90;;;24.30;99.90;;;;;;4955387;29;20377;-74
2022/06/17 08:39:45;;;;;;;1999.90;999.90;;;24.30;99.90;;;;;;4955676;28;20330;-75
2022/06/17 08:42:52;;;;;;;1999.90;999.90;;;24.40;99.90;;;;;;4955717;28;20384;-75
2022/06/17 08:45:42;;;;;;;1999.90;999.90;;;24.40;99.90;;;;;;4955971;28;20465;-75
2022/06/17 08:48:27;;;;;;;1999.90;999.90;;;24.30;99.90;;;;;;4955010;28;20382;-75
2022/06/17 08:51:15;;;;;;;1999.90;999.90;;;24.40;99.90;;;;;;4954727;28;20422;-75
2022/06/17 08:54:12;;;;;;;1999.90;999.90;;;24.60;99.90;;;;;;4955444;28;20870;-74
2022/06/17 08:56:49;;;;;;;1999.90;999.90;;;24.80;99.90;;;;;;4955019;28;21095;-75
2022/06/17 08:59:41;;;;;;;1999.90;999.90;;;24.90;99.90;;;;;;4955339;28;20862;-75
2022/06/17 09:02:31;;;;;;;1999.90;999.90;;;25.00;99.90;;;;;;4954941;28;20399;-75
2022/06/17 09:05:11;;;;;;;1999.90;999.90;;;25.00;99.90;;;;;;4954792;29;20393;-75
2022/06/17 09:07:59;;;;;;;1999.90;999.90;;;25.00;99.90;;;;;;4954573;28;20430;-75
2022/06/17 09:10:33;;;;;;;1999.90;999.90;;;25.00;99.90;;;;;;4955056;28;20423;-75
2022/06/17 09:13:24;;;;;;;1999.90;999.90;;;25.00;99.90;;;;;;4955189;29;20407;-75
2022/06/17 09:16:11;;;;;;;1999.90;999.90;;;25.10;98.00;;;;;;4955256;28;20443;-75
2022/06/17 09:18:41;;;;;;;1999.90;999.90;;;24.90;98.40;;;;;;4955561;28;20493;-75
2022/06/17 09:21:14;;;;;;;1999.90;999.90;;;25.10;99.90;;;;;;4955306;28;20438;-75
2022/06/17 09:23:41;;;;;;;1999.90;999.90;;;25.10;96.10;;;;;;4955483;28;20512;-75
2022/06/17 09:26:30;;;;;;;1999.90;999.90;;;25.30;95.70;;;;;;4955356;28;20463;-75
2022/06/17 09:29:11;;;;;;;1999.90;999.90;;;25.40;93.30;;;;;;4954791;28;20399;-75
2022/06/17 09:31:45;;;;;;;1999.90;999.90;;;25.50;91.90;;;;;;4955270;28;20489;-75
2022/06/17 09:34:26;;;;;;;1999.90;999.90;;;25.60;91.20;;;;;;4952077;28;20486;-74
2022/06/17 09:37:00;;;;;;;1999.90;999.90;;;25.80;91.50;;;;;;4951672;29;20515;-74
2022/06/17 09:39:44;;;;;;;1999.90;999.90;;;25.90;89.40;;;;;;4952851;28;20421;-74
2022/06/17 09:42:19;;;;;;;1999.90;999.90;;;26.10;88.00;;;;;;4953142;28;20406;-74
2022/06/17 09:44:54;;;;;;;1999.90;999.90;;;26.10;75.70;;;;;;4949636;28;20487;-74
2022/06/17 09:47:36;;;;;;;1999.90;999.90;;;26.30;86.60;;;;;;4952197;28;20384;-73
2022/06/17 09:50:24;;;;;;;1999.90;999.90;;;26.40;74.80;;;;;;4952611;28;20393;-71
2022/06/17 09:53:09;;;;;;;1999.90;999.90;;;26.50;75.60;;;;;;4949460;28;20432;-71
2022/06/17 09:55:41;;;;;;;1999.90;999.90;;;26.60;74.60;;;;;;4952203;28;20401;-72
2022/06/17 09:58:24;;;;;;;1999.90;999.90;;;26.70;75.30;;;;;;4953647;28;20402;-74
2022/06/17 10:00:53;;;;;;;1999.90;999.90;;;26.80;76.90;;;;;;4964645;28;20415;-72
2022/06/17 10:03:26;;;;;;;1999.90;999.90;;;27.00;72.50;;;;;;4952606;28;20411;-76
2022/06/17 10:06:10;;;;;;;1999.90;999.90;;;27.10;74.50;;;;;;4952475;28;20866;-74
2022/06/17 10:08:50;;;;;;;1999.90;999.90;;;27.20;71.50;;;;;;4954438;29;20422;-77
2022/06/17 10:11:18;;;;;;;1999.90;999.90;;;27.40;73.20;;;;;;4956393;28;20380;-78
2022/06/17 10:13:59;;;;;;;1999.90;999.90;;;27.60;63.50;;;;;;4955663;28;20402;-77
2022/06/17 10:19:43;;;;;;;1999.90;999.90;;;27.70;58.50;;;;;;4956435;28;20461;-76
2022/06/17 10:22:30;;;;;;;1999.90;999.90;;;27.70;58.40;;;;;;4954801;29;20449;-73
2022/06/17 10:25:33;;;;;;;1999.90;999.90;;;27.70;58.00;;;;;;4963102;28;20408;-73
2022/06/17 10:28:02;;;;;;;1999.90;999.90;;;27.80;55.40;;;;;;4940508;28;20761;-75
2022/06/17 10:30:58;;;;;;;1999.90;999.90;;;27.80;54.70;;;;;;4961103;28;21013;-73
2022/06/17 10:33:24;;;;;;;1999.90;999.90;;;28.00;53.60;;;;;;4954846;28;20407;-72
2022/06/17 10:35:50;;;;;;;1999.90;999.90;;;28.20;50.60;;;;;;4954359;28;21000;-72
2022/06/17 10:38:20;;;;;;;1999.90;999.90;;;28.40;46.00;;;;;;4954660;29;20497;-72
2022/06/17 10:40:46;;;;;;;1999.90;999.90;;;28.50;43.50;;;;;;4954853;28;20234;-72
2022/06/17 10:43:20;;;;;;;1999.90;999.90;;;28.80;41.30;;;;;;4953947;28;20498;-72
2022/06/17 10:45:46;;;;;;;1999.90;999.90;;;28.80;45.20;;;;;;4954335;28;20446;-72
2022/06/17 10:48:18;;;;;;;1999.90;999.90;;;28.90;46.90;;;;;;4954341;28;20776;-72
2022/06/17 10:50:44;;;;;;;1999.90;999.90;;;29.00;39.30;;;;;;4954137;28;20422;-72
2022/06/17 10:53:28;;;;;;;1999.90;999.90;;;29.10;40.00;;;;;;4948628;29;20441;-72
2022/06/17 10:55:58;;;;;;;1999.90;999.90;;;29.20;40.10;;;;;;4954607;28;20188;-72
2022/06/17 10:58:29;;;;;;;1999.90;999.90;;;29.30;36.00;;;;;;4954200;28;20434;-72
2022/06/17 11:01:00;;;;;;;1999.90;999.90;;;29.30;37.50;;;;;;4954588;28;20438;-72
2022/06/17 11:03:36;;;;;;;1999.90;999.90;;;29.30;38.20;;;;;;4953895;29;20407;-72
2022/06/17 11:06:22;;;;;;;1999.90;999.90;;;29.50;32.60;;;;;;4953354;29;20917;-72
2022/06/17 11:08:48;;;;;;;1999.90;999.90;;;29.80;30.30;;;;;;4954724;28;20909;-72
2022/06/17 11:14:03;;;;;;;1999.90;999.90;;;30.10;34.60;;;;;;4954393;29;20447;-72
2022/06/17 11:16:39;;;;;;;1999.90;999.90;;;30.30;33.10;;;;;;4954051;28;20443;-72
2022/06/17 11:19:11;;;;;;;1999.90;999.90;;;30.50;37.00;;;;;;4896488;28;1681926;-72
2022/06/17 11:21:44;;;;;;;1999.90;999.90;;;30.60;33.60;;;;;;4955249;28;20421;-73
2022/06/17 11:24:22;;;;;;;1999.90;999.90;;;30.70;30.00;;;;;;4953674;28;20458;-72
2022/06/17 11:27:07;;;;;;;1999.90;999.90;;;30.90;33.40;;;;;;4954106;28;20537;-72
2022/06/17 11:29:42;;;;;;;1999.90;999.90;;;31.30;34.90;;;;;;4955107;28;20465;-72
2022/06/17 11:32:20;;;;;;;1999.90;999.90;;;31.50;28.70;;;;;;4955126;28;20500;-72
2022/06/17 11:35:18;;;;;;;1999.90;999.90;;;31.60;25.10;;;;;;4954462;29;20410;-73
2022/06/17 11:37:47;;;;;;;1999.90;999.90;;;31.70;27.70;;;;;;4954669;28;20485;-72
2022/06/17 11:40:14;;;;;;;1999.90;999.90;;;31.80;25.10;;;;;;4954765;28;20462;-73
2022/06/17 11:43:22;;;;;;;1999.90;999.90;;;31.90;28.70;;;;;;4954285;28;20430;-73
2022/06/17 11:45:48;;;;;;;1999.90;999.90;;;32.00;25.60;;;;;;4949165;28;20462;-72
2022/06/17 11:48:18;;;;;;;1999.90;999.90;;;31.70;25.50;;;;;;4954454;28;20777;-73
2022/06/17 11:51:01;;;;;;;1999.90;999.90;;;31.70;23.80;;;;;;4954311;28;20195;-73
2022/06/17 11:53:28;;;;;;;1999.90;999.90;;;31.80;24.10;;;;;;4954508;28;20845;-73
2022/06/17 11:55:54;;;;;;;1999.90;999.90;;;32.00;24.10;;;;;;4954067;28;20411;-73
2022/06/17 11:58:20;;;;;;;1999.90;999.90;;;32.40;24.90;;;;;;4954361;29;20414;-73
2022/06/17 12:00:51;;;;;;;1999.90;999.90;;;32.80;26.50;;;;;;4954494;28;20233;-73
2022/06/17 12:03:39;;;;;;;1999.90;999.90;;;33.00;21.30;;;;;;4953882;28;20403;-73
2022/06/17 12:06:16;;;;;;;1999.90;999.90;;;32.90;20.60;;;;;;4953534;28;20899;-72
2022/06/17 12:08:50;;;;;;;1999.90;999.90;;;32.90;21.20;;;;;;4954395;28;20407;-73
2022/06/17 12:11:26;;;;;;;1999.90;999.90;;;33.10;22.50;;;;;;4954050;28;20550;-73
2022/06/17 12:13:57;;;;;;;1999.90;999.90;;;33.50;23.30;;;;;;4954267;28;20413;-73
2022/06/17 12:16:25;;;;;;;1999.90;999.90;;;34.10;22.50;;;;;;4953883;29;20405;-73
2022/06/17 12:18:54;;;;;;;1999.90;999.90;;;34.70;20.80;;;;;;4953615;28;20545;-73
2022/06/17 12:21:30;;;;;;;1999.90;999.90;;;35.60;21.20;;;;;;4954134;28;20414;-73
2022/06/17 12:24:13;;;;;;;1999.90;999.90;;;36.20;17.50;;;;;;4953779;28;20422;-73
2022/06/17 12:27:03;;;;;;;1999.90;999.90;;;36.50;16.60;;;;;;4953062;29;20450;-73
2022/06/17 12:29:43;;;;;;;1999.90;999.90;;;36.70;14.70;;;;;;4953861;29;20418;-73
2022/06/17 12:32:19;;;;;;;1999.90;999.90;;;36.80;13.20;;;;;;4953890;29;20480;-73
2022/06/17 12:34:44;;;;;;;1999.90;999.90;;;37.20;14.40;;;;;;4953466;28;20414;-73
2022/06/17 12:37:23;;;;;;;1999.90;999.90;;;37.80;12.80;;;;;;4953603;28;20902;-73